Time;durP1;ratioP1;P1;durP2;ratioP2;P2;SDS_P1;SDS_P2;PMS_P1;PMS_P2;Temp;Humidity;BMP_temperature;BMP_pressure;BME280_temperature;BME280_humidity;BME280_pressure;Samples;Min_cycle;Max_cycle;Signal;HPM_P1;HPM_P2
2021/12/19 00:02:19;;;;;;;;;;;5.40;94.10;;;;;;4975782;28;19929;-74
2021/12/19 00:08:27;;;;;;;;;;;5.30;94.10;;;;;;4980278;28;19932;-74
2021/12/19 00:10:26;;;;;;;;;;;5.40;94.10;;;;;;4975400;28;20014;-73
2021/12/19 00:12:54;;;;;;;;;;;5.30;94.10;;;;;;4975231;28;19925;-74
2021/12/19 00:15:20;;;;;;;;;;;5.40;94.10;;;;;;4968112;28;19930;-74
2021/12/19 00:17:47;;;;;;;;;;;5.40;94.20;;;;;;4981927;28;19987;-74
2021/12/19 00:20:15;;;;;;;;;;;5.30;94.50;;;;;;4979408;28;19925;-73
2021/12/19 00:22:41;;;;;;;;;;;5.30;94.10;;;;;;4981256;28;19988;-73
2021/12/19 00:25:08;;;;;;;;;;;5.30;94.10;;;;;;4983223;28;20386;-74
2021/12/19 00:27:35;;;;;;;;;;;5.30;94.10;;;;;;4976872;28;19926;-74
2021/12/19 00:30:01;;;;;;;;;;;5.30;94.10;;;;;;4979655;28;20460;-74
2021/12/19 00:32:28;;;;;;;;;;;5.30;94.20;;;;;;4970358;28;19932;-74
2021/12/19 00:34:54;;;;;;;;;;;5.30;94.10;;;;;;4972501;28;19926;-74
2021/12/19 00:37:23;;;;;;;;;;;5.30;94.10;;;;;;4979056;28;19933;-73
2021/12/19 00:39:49;;;;;;;;;;;5.30;94.10;;;;;;4971004;28;19930;-74
2021/12/19 00:42:25;;;;;;;;;;;5.30;94.10;;;;;;4982277;28;19932;-74
2021/12/19 00:44:53;;;;;;;;;;;5.30;94.10;;;;;;4978513;28;19925;-74
2021/12/19 00:47:19;;;;;;;;;;;5.30;94.10;;;;;;4973089;28;19930;-74
2021/12/19 00:49:46;;;;;;;;;;;5.30;94.20;;;;;;4974609;28;20016;-74
2021/12/19 00:52:12;;;;;;;;;;;5.30;94.20;;;;;;4983394;28;19970;-73
2021/12/19 00:54:40;;;;;;;;;;;5.30;94.20;;;;;;4974095;28;19930;-74
2021/12/19 00:57:07;;;;;;;;;;;5.20;94.20;;;;;;4976589;28;19937;-74
2021/12/19 00:59:34;;;;;;;;;;;5.30;94.20;;;;;;4975630;28;19937;-74
2021/12/19 01:02:00;;;;;;;;;;;5.20;94.20;;;;;;4981433;28;20040;-74
2021/12/19 01:04:27;;;;;;;;;;;5.30;94.20;;;;;;4978657;28;20093;-74
2021/12/19 01:06:57;;;;;;;;;;;5.20;94.20;;;;;;4979830;28;19932;-73
2021/12/19 01:09:23;;;;;;;;;;;5.30;94.20;;;;;;4972232;28;19926;-74
2021/12/19 01:11:52;;;;;;;;;;;5.20;94.20;;;;;;4974547;28;19929;-73
2021/12/19 01:14:18;;;;;;;;;;;5.20;94.20;;;;;;4976230;28;20486;-73
2021/12/19 01:16:45;;;;;;;;;;;5.20;94.20;;;;;;4980725;28;19925;-74
2021/12/19 01:19:11;;;;;;;;;;;5.20;94.20;;;;;;4979364;28;19926;-73
2021/12/19 01:21:38;;;;;;;;;;;5.20;94.20;;;;;;4981881;28;19925;-73
2021/12/19 01:24:05;;;;;;;;;;;5.20;94.20;;;;;;4977413;28;19929;-73
2021/12/19 01:26:31;;;;;;;;;;;5.20;94.20;;;;;;4980616;28;20401;-73
2021/12/19 01:28:59;;;;;;;;;;;5.20;94.20;;;;;;4981664;28;20317;-73
2021/12/19 01:31:26;;;;;;;;;;;5.20;94.20;;;;;;4972875;28;20346;-73
2021/12/19 01:33:52;;;;;;;;;;;5.20;94.20;;;;;;4979739;28;20710;-74
2021/12/19 01:36:19;;;;;;;;;;;5.20;94.20;;;;;;4974220;28;19930;-73
2021/12/19 01:38:46;;;;;;;;;;;5.20;94.30;;;;;;4981744;28;19925;-74
2021/12/19 01:41:12;;;;;;;;;;;5.20;94.20;;;;;;4979512;28;19925;-74
2021/12/19 01:43:39;;;;;;;;;;;5.20;94.20;;;;;;4977887;28;19938;-73
2021/12/19 01:46:07;;;;;;;;;;;5.20;94.20;;;;;;4980254;28;19995;-73
2021/12/19 01:48:33;;;;;;;;;;;5.10;94.30;;;;;;4981101;28;19933;-74
2021/12/19 01:51:00;;;;;;;;;;;5.20;94.30;;;;;;4985185;28;19929;-73
2021/12/19 01:53:28;;;;;;;;;;;5.20;94.30;;;;;;4983595;28;19932;-74
2021/12/19 01:55:55;;;;;;;;;;;5.20;94.30;;;;;;4984413;28;19928;-74
2021/12/19 01:58:21;;;;;;;;;;;5.10;94.30;;;;;;4981602;28;19948;-73
2021/12/19 02:00:50;;;;;;;;;;;5.20;94.30;;;;;;4981454;28;19929;-74
2021/12/19 02:03:18;;;;;;;;;;;5.10;94.30;;;;;;4979604;28;19929;-74
2021/12/19 02:05:44;;;;;;;;;;;5.10;94.30;;;;;;4983845;28;19933;-74
2021/12/19 02:08:11;;;;;;;;;;;5.10;94.30;;;;;;4983868;28;19937;-74
2021/12/19 02:10:38;;;;;;;;;;;5.10;94.30;;;;;;4972678;28;19922;-74
2021/12/19 02:13:06;;;;;;;;;;;5.10;94.30;;;;;;4980430;28;19925;-74
2021/12/19 02:15:33;;;;;;;;;;;5.10;94.30;;;;;;4985586;28;19925;-75
2021/12/19 02:18:00;;;;;;;;;;;5.10;94.30;;;;;;4977112;28;20671;-74
2021/12/19 02:20:32;;;;;;;;;;;5.10;94.30;;;;;;4982686;28;20024;-74
2021/12/19 02:22:59;;;;;;;;;;;5.10;94.30;;;;;;4985645;28;20024;-74
2021/12/19 02:25:26;;;;;;;;;;;5.10;94.30;;;;;;4983265;28;19925;-74
2021/12/19 02:27:52;;;;;;;;;;;5.10;94.30;;;;;;4983406;28;19925;-74
2021/12/19 02:30:19;;;;;;;;;;;5.10;94.30;;;;;;4982454;28;19992;-74
2021/12/19 02:32:45;;;;;;;;;;;5.10;94.30;;;;;;4974956;28;20705;-74
2021/12/19 02:35:16;;;;;;;;;;;5.10;94.30;;;;;;4975572;28;19926;-74
2021/12/19 02:38:08;;;;;;;;;;;5.10;94.30;;;;;;4986381;28;20495;-74
2021/12/19 02:48:48;;;;;;;;;;;5.10;94.30;;;;;;4984630;28;19936;-74
2021/12/19 02:51:15;;;;;;;;;;;5.00;94.30;;;;;;4981290;28;19926;-74
2021/12/19 02:53:43;;;;;;;;;;;5.10;94.40;;;;;;4981197;28;20689;-74
2021/12/19 02:56:11;;;;;;;;;;;5.00;94.30;;;;;;4975466;28;19938;-74
2021/12/19 02:58:39;;;;;;;;;;;5.00;94.30;;;;;;4979645;28;19929;-74
2021/12/19 03:01:07;;;;;;;;;;;5.00;94.40;;;;;;4974911;28;19929;-74
2021/12/19 03:03:33;;;;;;;;;;;5.00;94.40;;;;;;4983648;28;19932;-74
2021/12/19 03:06:00;;;;;;;;;;;5.00;94.40;;;;;;4983015;28;19925;-74
2021/12/19 03:08:26;;;;;;;;;;;5.00;94.40;;;;;;4981349;28;20417;-74
2021/12/19 03:11:46;;;;;;;;;;;5.00;94.40;;;;;;4984492;28;19952;-73
2021/12/19 03:19:37;;;;;;;;;;;5.00;94.40;;;;;;4977972;28;19977;-74
2021/12/19 03:22:04;;;;;;;;;;;5.00;94.40;;;;;;4979561;28;19996;-74
2021/12/19 03:24:30;;;;;;;;;;;5.00;94.40;;;;;;4974551;28;19930;-74
2021/12/19 03:26:58;;;;;;;;;;;5.00;94.40;;;;;;4977090;28;19921;-74
2021/12/19 03:29:25;;;;;;;;;;;5.00;94.40;;;;;;4984183;28;20436;-74
2021/12/19 03:31:52;;;;;;;;;;;5.00;94.40;;;;;;4974371;28;19926;-75
2021/12/19 03:34:18;;;;;;;;;;;5.00;94.40;;;;;;4979699;28;19929;-74
2021/12/19 03:36:45;;;;;;;;;;;5.00;94.50;;;;;;4981673;28;19932;-74
2021/12/19 03:39:25;;;;;;;;;;;5.00;94.40;;;;;;4984011;28;20694;-74
2021/12/19 03:41:54;;;;;;;;;;;5.00;94.50;;;;;;4978863;28;19926;-74
2021/12/19 03:44:22;;;;;;;;;;;5.00;94.50;;;;;;4982701;28;20433;-74
2021/12/19 03:46:48;;;;;;;;;;;5.00;94.50;;;;;;4981919;28;19933;-74
2021/12/19 03:49:17;;;;;;;;;;;5.00;94.50;;;;;;4983404;28;19934;-74
2021/12/19 03:51:44;;;;;;;;;;;4.90;94.40;;;;;;4983053;28;19961;-74
2021/12/19 03:54:10;;;;;;;;;;;4.90;94.40;;;;;;4979183;28;19936;-74
2021/12/19 03:56:37;;;;;;;;;;;4.90;94.40;;;;;;4981596;28;19925;-74
2021/12/19 03:59:03;;;;;;;;;;;4.90;94.40;;;;;;4979722;28;19926;-74
2021/12/19 04:01:31;;;;;;;;;;;4.90;94.40;;;;;;4977016;28;19933;-74
2021/12/19 04:03:58;;;;;;;;;;;4.90;94.80;;;;;;4977675;28;19933;-74
2021/12/19 04:06:25;;;;;;;;;;;4.90;94.40;;;;;;4983822;28;19925;-74
2021/12/19 04:08:52;;;;;;;;;;;4.90;94.40;;;;;;4981486;28;20598;-74
2021/12/19 04:11:18;;;;;;;;;;;4.90;94.40;;;;;;4975495;28;19933;-74
2021/12/19 04:13:45;;;;;;;;;;;4.90;94.40;;;;;;4977185;28;19968;-74
2021/12/19 04:16:12;;;;;;;;;;;4.90;94.40;;;;;;4981439;28;20648;-74
2021/12/19 04:18:39;;;;;;;;;;;4.90;94.40;;;;;;4978441;28;19933;-74
2021/12/19 04:21:06;;;;;;;;;;;4.90;94.80;;;;;;4977211;28;19925;-74
2021/12/19 04:23:33;;;;;;;;;;;4.90;94.40;;;;;;4980458;28;19989;-74
2021/12/19 04:25:59;;;;;;;;;;;4.90;94.40;;;;;;4986222;28;19925;-74
2021/12/19 04:28:26;;;;;;;;;;;4.90;94.40;;;;;;4982944;28;19996;-74
2021/12/19 04:30:52;;;;;;;;;;;4.90;94.50;;;;;;4978424;28;20031;-74
2021/12/19 04:33:21;;;;;;;;;;;4.90;94.50;;;;;;4979324;28;19933;-73
2021/12/19 04:35:49;;;;;;;;;;;4.80;94.40;;;;;;4970971;28;19921;-74
2021/12/19 04:41:25;;;;;;;;;;;4.90;94.50;;;;;;4981379;28;19929;-74
2021/12/19 04:55:01;;;;;;;;;;;4.80;94.50;;;;;;4976666;28;19926;-74
2021/12/19 04:57:35;;;;;;;;;;;4.80;94.50;;;;;;4969996;28;19933;-74
2021/12/19 05:00:06;;;;;;;;;;;4.80;94.50;;;;;;4973693;28;19926;-74
2021/12/19 05:02:45;;;;;;;;;;;4.80;94.50;;;;;;4969867;28;19965;-74
2021/12/19 05:16:08;;;;;;;;;;;4.80;94.50;;;;;;4977756;28;19972;-74
2021/12/19 05:18:38;;;;;;;;;;;4.80;94.50;;;;;;4975634;28;20606;-74
2021/12/19 05:21:09;;;;;;;;;;;4.80;94.50;;;;;;4975635;28;19937;-74
2021/12/19 05:23:51;;;;;;;;;;;4.80;94.50;;;;;;4972764;28;19955;-74
2021/12/19 05:26:18;;;;;;;;;;;4.80;94.50;;;;;;4975887;28;19969;-74
2021/12/19 05:28:48;;;;;;;;;;;4.80;94.50;;;;;;4982680;28;19925;-74
2021/12/19 05:31:14;;;;;;;;;;;4.80;94.50;;;;;;4979335;28;19930;-73
2021/12/19 05:33:41;;;;;;;;;;;4.80;94.60;;;;;;4980967;28;19929;-74
2021/12/19 05:44:09;;;;;;;;;;;4.80;94.60;;;;;;4982228;28;19922;-74
2021/12/19 05:47:16;;;;;;;;;;;4.80;94.60;;;;;;4977282;28;19960;-74
2021/12/19 05:49:43;;;;;;;;;;;4.80;94.60;;;;;;4981532;28;19959;-74
2021/12/19 05:52:09;;;;;;;;;;;4.80;94.60;;;;;;4985318;28;19957;-74
2021/12/19 05:54:37;;;;;;;;;;;4.80;94.60;;;;;;4977963;28;19928;-74
2021/12/19 05:57:04;;;;;;;;;;;4.80;94.60;;;;;;4973364;28;20433;-74
2021/12/19 05:59:31;;;;;;;;;;;4.80;94.60;;;;;;4977583;28;19946;-74
2021/12/19 06:01:57;;;;;;;;;;;4.80;94.60;;;;;;4976847;28;19930;-74
2021/12/19 06:04:24;;;;;;;;;;;4.80;94.60;;;;;;4983759;28;19933;-74
2021/12/19 06:06:51;;;;;;;;;;;4.80;94.60;;;;;;4984855;28;20049;-74
2021/12/19 06:09:17;;;;;;;;;;;4.80;94.60;;;;;;4978511;28;20056;-74
2021/12/19 06:11:45;;;;;;;;;;;4.70;94.60;;;;;;4978281;28;19926;-74
2021/12/19 06:14:12;;;;;;;;;;;4.80;94.60;;;;;;4982888;28;19929;-74
2021/12/19 06:16:38;;;;;;;;;;;4.70;94.60;;;;;;4980692;28;19942;-74
2021/12/19 06:19:05;;;;;;;;;;;4.70;94.60;;;;;;4976821;28;19934;-74
2021/12/19 06:21:31;;;;;;;;;;;4.70;94.60;;;;;;4974035;28;19937;-74
2021/12/19 06:23:58;;;;;;;;;;;4.70;94.60;;;;;;4981652;28;19936;-74
2021/12/19 06:26:24;;;;;;;;;;;4.70;94.60;;;;;;4979386;28;19929;-74
2021/12/19 06:28:52;;;;;;;;;;;4.70;94.60;;;;;;4978679;28;19925;-74
2021/12/19 06:31:19;;;;;;;;;;;4.70;94.70;;;;;;4981813;28;19929;-74
2021/12/19 06:33:45;;;;;;;;;;;4.70;94.70;;;;;;4979436;28;19933;-74
2021/12/19 06:36:12;;;;;;;;;;;4.70;94.70;;;;;;4977796;28;20410;-73
2021/12/19 06:38:39;;;;;;;;;;;4.70;94.70;;;;;;4981368;28;19929;-73
2021/12/19 06:41:05;;;;;;;;;;;4.70;94.70;;;;;;4975450;28;20357;-74
2021/12/19 06:43:33;;;;;;;;;;;4.70;94.70;;;;;;4977796;28;19926;-73
2021/12/19 06:46:01;;;;;;;;;;;4.70;94.70;;;;;;4981632;28;20416;-73
2021/12/19 06:48:27;;;;;;;;;;;4.70;94.70;;;;;;4983459;28;19926;-73
2021/12/19 06:50:54;;;;;;;;;;;4.70;94.70;;;;;;4978423;28;19926;-73
2021/12/19 06:53:21;;;;;;;;;;;4.70;94.70;;;;;;4980596;28;19925;-73
2021/12/19 06:55:47;;;;;;;;;;;4.70;94.70;;;;;;4976923;28;20354;-73
2021/12/19 06:58:14;;;;;;;;;;;4.70;94.70;;;;;;4978517;28;20416;-73
2021/12/19 07:00:40;;;;;;;;;;;4.70;94.70;;;;;;4982904;28;19926;-73
2021/12/19 07:03:10;;;;;;;;;;;4.70;94.80;;;;;;4980427;28;19933;-73
2021/12/19 07:05:36;;;;;;;;;;;4.70;94.70;;;;;;4979636;28;20008;-72
2021/12/19 07:08:03;;;;;;;;;;;4.60;94.70;;;;;;4978515;28;20558;-72
2021/12/19 07:10:30;;;;;;;;;;;4.70;94.80;;;;;;4976599;28;19926;-73
2021/12/19 07:12:56;;;;;;;;;;;4.70;94.70;;;;;;4982035;28;19936;-72
2021/12/19 07:15:24;;;;;;;;;;;4.60;94.70;;;;;;4976646;28;21863;-72
2021/12/19 07:17:51;;;;;;;;;;;4.70;94.70;;;;;;4985241;28;19976;-73
2021/12/19 07:20:19;;;;;;;;;;;4.60;94.80;;;;;;4974891;28;21179;-73
2021/12/19 07:22:45;;;;;;;;;;;4.60;94.80;;;;;;4978163;28;19967;-73
2021/12/19 07:25:12;;;;;;;;;;;4.60;94.80;;;;;;4978327;28;19933;-72
2021/12/19 07:27:38;;;;;;;;;;;4.60;94.80;;;;;;4978550;28;19926;-73
2021/12/19 07:30:06;;;;;;;;;;;4.60;94.80;;;;;;4976246;28;19933;-74
2021/12/19 07:32:34;;;;;;;;;;;4.70;94.80;;;;;;4977714;28;19930;-73
2021/12/19 07:35:01;;;;;;;;;;;4.60;94.80;;;;;;4974625;28;19926;-72
2021/12/19 07:37:29;;;;;;;;;;;4.60;94.80;;;;;;4978322;28;19969;-73
2021/12/19 07:40:03;;;;;;;;;;;4.60;94.80;;;;;;4978892;28;19925;-73
2021/12/19 07:42:30;;;;;;;;;;;4.60;94.80;;;;;;4978422;28;19930;-73
2021/12/19 07:44:57;;;;;;;;;;;4.60;94.80;;;;;;4974225;28;19925;-72
2021/12/19 07:47:23;;;;;;;;;;;4.60;94.80;;;;;;4975003;28;20568;-72
2021/12/19 07:49:50;;;;;;;;;;;4.60;94.80;;;;;;4975499;28;20437;-73
2021/12/19 07:52:16;;;;;;;;;;;4.60;94.80;;;;;;4975334;28;19925;-73
2021/12/19 07:54:45;;;;;;;;;;;4.60;94.90;;;;;;4977379;28;19929;-73
2021/12/19 07:57:11;;;;;;;;;;;4.60;94.90;;;;;;4977102;28;19959;-73
2021/12/19 07:59:38;;;;;;;;;;;4.60;94.90;;;;;;4975210;28;20386;-73
2021/12/19 08:02:05;;;;;;;;;;;4.60;94.90;;;;;;4977560;28;19933;-73
2021/12/19 08:04:31;;;;;;;;;;;4.60;94.90;;;;;;4973708;28;19937;-73
2021/12/19 08:06:58;;;;;;;;;;;4.60;94.90;;;;;;4975608;28;19930;-72
2021/12/19 08:09:36;;;;;;;;;;;4.60;94.90;;;;;;4978997;28;19929;-73
2021/12/19 08:12:03;;;;;;;;;;;4.60;94.90;;;;;;4972259;28;19973;-73
2021/12/19 08:14:30;;;;;;;;;;;4.60;94.90;;;;;;4972483;28;19966;-72
2021/12/19 08:16:56;;;;;;;;;;;4.60;94.90;;;;;;4980204;28;19925;-72
2021/12/19 08:19:23;;;;;;;;;;;4.60;94.90;;;;;;4973302;28;19930;-73
2021/12/19 08:21:50;;;;;;;;;;;4.60;94.90;;;;;;4978225;28;19926;-72
2021/12/19 08:24:16;;;;;;;;;;;4.60;94.90;;;;;;4973773;28;19925;-73
2021/12/19 08:26:45;;;;;;;;;;;4.60;95.00;;;;;;4983954;28;19929;-73
2021/12/19 08:29:13;;;;;;;;;;;4.60;94.90;;;;;;4978564;28;19926;-73
2021/12/19 08:31:40;;;;;;;;;;;4.60;95.00;;;;;;4974969;28;19938;-73
2021/12/19 08:34:07;;;;;;;;;;;4.60;95.00;;;;;;4975346;28;20016;-73
2021/12/19 08:36:34;;;;;;;;;;;4.50;94.90;;;;;;4976108;28;20539;-72
2021/12/19 08:39:00;;;;;;;;;;;4.60;95.00;;;;;;4975257;28;19926;-72
2021/12/19 08:41:27;;;;;;;;;;;4.50;95.00;;;;;;4978204;28;19933;-74
2021/12/19 08:43:54;;;;;;;;;;;4.50;95.00;;;;;;4977634;28;19926;-73
2021/12/19 08:46:24;;;;;;;;;;;4.60;95.00;;;;;;4974409;28;19926;-73
2021/12/19 08:48:51;;;;;;;;;;;4.60;95.00;;;;;;4976100;28;19976;-75
2021/12/19 08:51:17;;;;;;;;;;;4.50;95.00;;;;;;4977686;28;19934;-73
2021/12/19 08:53:44;;;;;;;;;;;4.50;95.00;;;;;;4977934;28;19932;-73
2021/12/19 08:56:11;;;;;;;;;;;4.50;95.00;;;;;;4978884;28;19922;-75
2021/12/19 08:58:37;;;;;;;;;;;4.50;95.00;;;;;;4973726;28;20570;-74
2021/12/19 09:01:04;;;;;;;;;;;4.50;95.00;;;;;;4981649;28;20459;-73
2021/12/19 09:03:33;;;;;;;;;;;4.50;95.00;;;;;;4981860;28;19925;-73
2021/12/19 09:05:59;;;;;;;;;;;4.50;95.00;;;;;;4978578;28;19932;-73
2021/12/19 09:08:26;;;;;;;;;;;4.50;95.00;;;;;;4983923;28;19926;-73
2021/12/19 09:10:54;;;;;;;;;;;4.50;95.00;;;;;;4982433;28;19929;-73
2021/12/19 09:13:20;;;;;;;;;;;4.50;95.00;;;;;;4976290;28;19926;-73
2021/12/19 09:15:47;;;;;;;;;;;4.50;95.00;;;;;;4982054;28;20004;-73
2021/12/19 09:18:13;;;;;;;;;;;4.50;95.00;;;;;;4980801;28;20453;-74
2021/12/19 09:20:41;;;;;;;;;;;4.50;95.00;;;;;;4982313;28;20000;-73
2021/12/19 09:23:08;;;;;;;;;;;4.50;95.00;;;;;;4980877;28;19926;-73
2021/12/19 09:25:36;;;;;;;;;;;4.50;95.00;;;;;;4977217;28;19925;-73
2021/12/19 09:28:02;;;;;;;;;;;4.50;95.10;;;;;;4976921;28;19930;-73
2021/12/19 09:30:29;;;;;;;;;;;4.50;95.10;;;;;;4972000;28;19925;-73
2021/12/19 09:32:56;;;;;;;;;;;4.50;95.10;;;;;;4978334;28;19932;-75
2021/12/19 09:35:22;;;;;;;;;;;4.50;95.10;;;;;;4973521;28;20456;-76
2021/12/19 09:37:50;;;;;;;;;;;4.50;95.10;;;;;;4981269;28;20109;-75
2021/12/19 09:40:21;;;;;;;;;;;4.50;95.20;;;;;;4974069;28;19926;-76
2021/12/19 09:42:50;;;;;;;;;;;4.50;95.20;;;;;;4970682;28;20485;-75
2021/12/19 09:45:17;;;;;;;;;;;4.50;95.10;;;;;;4977313;28;20173;-73
2021/12/19 09:47:43;;;;;;;;;;;4.50;95.10;;;;;;4975823;28;19936;-74
2021/12/19 09:50:10;;;;;;;;;;;4.50;95.10;;;;;;4978444;28;20511;-75
2021/12/19 09:52:37;;;;;;;;;;;4.50;95.10;;;;;;4977453;28;19948;-74
2021/12/19 09:55:06;;;;;;;;;;;4.50;95.20;;;;;;4976128;28;19932;-75
2021/12/19 09:57:32;;;;;;;;;;;4.50;95.20;;;;;;4976540;28;20361;-75
2021/12/19 10:00:00;;;;;;;;;;;4.50;95.20;;;;;;4977782;28;20372;-75
2021/12/19 10:02:26;;;;;;;;;;;4.50;95.20;;;;;;4983909;28;20004;-75
2021/12/19 10:04:53;;;;;;;;;;;4.50;95.20;;;;;;4977845;28;19930;-74
2021/12/19 10:07:20;;;;;;;;;;;4.50;95.20;;;;;;4969738;28;19926;-74
2021/12/19 10:09:54;;;;;;;;;;;4.50;95.20;;;;;;4975762;28;19981;-74
2021/12/19 10:12:37;;;;;;;;;;;4.50;95.20;;;;;;4982039;28;19925;-74
2021/12/19 10:15:05;;;;;;;;;;;4.50;95.20;;;;;;4977159;28;19972;-74
2021/12/19 10:17:32;;;;;;;;;;;4.50;95.30;;;;;;4978666;28;19922;-74
2021/12/19 10:20:02;;;;;;;;;;;4.50;95.20;;;;;;4980368;28;19933;-73
2021/12/19 10:22:29;;;;;;;;;;;4.50;95.20;;;;;;4976566;28;20712;-74
2021/12/19 10:24:57;;;;;;;;;;;4.50;95.20;;;;;;4974550;28;19988;-73
2021/12/19 10:27:35;;;;;;;;;;;4.50;95.20;;;;;;4980740;28;19929;-74
2021/12/19 10:30:02;;;;;;;;;;;4.50;95.20;;;;;;4977486;28;19926;-73
2021/12/19 10:32:28;;;;;;;;;;;4.50;95.20;;;;;;4975338;28;19932;-74
2021/12/19 10:35:10;;;;;;;;;;;4.50;95.20;;;;;;4980695;28;20362;-74
2021/12/19 10:37:39;;;;;;;;;;;4.50;95.20;;;;;;4979101;28;20003;-74
2021/12/19 10:40:06;;;;;;;;;;;4.50;95.20;;;;;;4968842;28;19980;-74
2021/12/19 10:42:43;;;;;;;;;;;4.50;95.20;;;;;;4980820;28;20581;-74
2021/12/19 10:48:08;;;;;;;;;;;4.50;95.20;;;;;;4976632;28;19932;-73
2021/12/19 10:50:41;;;;;;;;;;;4.50;95.20;;;;;;4976510;28;20029;-74
2021/12/19 10:53:07;;;;;;;;;;;4.50;95.20;;;;;;4983419;28;19973;-74
2021/12/19 10:55:34;;;;;;;;;;;4.50;95.20;;;;;;4981596;28;19937;-74
2021/12/19 10:58:02;;;;;;;;;;;4.50;95.20;;;;;;4979073;28;20374;-73
2021/12/19 11:00:29;;;;;;;;;;;4.50;95.20;;;;;;4977090;28;20396;-74
2021/12/19 11:02:55;;;;;;;;;;;4.50;95.20;;;;;;4981894;28;19921;-74
2021/12/19 11:05:35;;;;;;;;;;;4.50;95.20;;;;;;4978392;28;20433;-74
2021/12/19 11:08:02;;;;;;;;;;;4.60;95.20;;;;;;4983817;28;20012;-74
2021/12/19 11:10:30;;;;;;;;;;;4.50;95.20;;;;;;4981530;28;19927;-74
2021/12/19 11:13:09;;;;;;;;;;;4.50;95.20;;;;;;4981938;28;19926;-74
2021/12/19 11:15:35;;;;;;;;;;;4.50;95.20;;;;;;4981893;28;19932;-74
2021/12/19 11:18:02;;;;;;;;;;;4.50;95.20;;;;;;4974255;28;19981;-74
2021/12/19 11:20:29;;;;;;;;;;;4.60;95.20;;;;;;4977082;28;19936;-75
2021/12/19 11:22:55;;;;;;;;;;;4.50;95.20;;;;;;4983943;28;19933;-73
2021/12/19 11:25:22;;;;;;;;;;;4.50;95.20;;;;;;4983262;28;19926;-75
2021/12/19 11:27:49;;;;;;;;;;;4.60;95.20;;;;;;4978138;28;19930;-75
2021/12/19 11:30:18;;;;;;;;;;;4.50;95.20;;;;;;4976139;28;20414;-74
2021/12/19 11:32:52;;;;;;;;;;;4.50;95.20;;;;;;4977644;28;19933;-74
2021/12/19 11:35:21;;;;;;;;;;;4.50;95.20;;;;;;4976002;28;20516;-74
2021/12/19 11:37:51;;;;;;;;;;;4.50;95.20;;;;;;4981236;28;19932;-74
2021/12/19 11:40:19;;;;;;;;;;;4.50;95.20;;;;;;4978088;28;19929;-74
2021/12/19 11:42:45;;;;;;;;;;;4.50;95.20;;;;;;4974591;28;19940;-75
2021/12/19 11:45:30;;;;;;;;;;;4.50;95.10;;;;;;4978338;28;20309;-74
2021/12/19 11:48:00;;;;;;;;;;;4.60;95.20;;;;;;4978727;28;19926;-74
2021/12/19 11:50:29;;;;;;;;;;;4.50;95.10;;;;;;4974138;28;19936;-75
2021/12/19 11:52:57;;;;;;;;;;;4.50;95.50;;;;;;4980514;28;20011;-74
2021/12/19 11:55:31;;;;;;;;;;;4.50;95.10;;;;;;4970490;28;20016;-74
2021/12/19 11:58:14;;;;;;;;;;;4.60;95.20;;;;;;4969026;28;19926;-74
2021/12/19 12:00:44;;;;;;;;;;;4.60;95.20;;;;;;4976274;28;19926;-75
2021/12/19 12:03:27;;;;;;;;;;;4.50;95.10;;;;;;4977291;28;20037;-74
2021/12/19 12:06:13;;;;;;;;;;;4.50;95.20;;;;;;4979975;28;20291;-74
2021/12/19 12:08:40;;;;;;;;;;;4.50;95.10;;;;;;4969520;28;19969;-74
2021/12/19 12:11:10;;;;;;;;;;;4.60;95.20;;;;;;4979199;28;19921;-74
2021/12/19 12:13:38;;;;;;;;;;;4.50;95.10;;;;;;4978651;28;19937;-74
2021/12/19 12:16:27;;;;;;;;;;;4.50;95.50;;;;;;4979120;28;19972;-74
2021/12/19 12:18:56;;;;;;;;;;;4.50;95.10;;;;;;4977558;28;19972;-74
2021/12/19 12:21:28;;;;;;;;;;;4.60;95.20;;;;;;4973716;28;19937;-74
2021/12/19 12:23:58;;;;;;;;;;;4.60;95.20;;;;;;4976324;28;20293;-74
2021/12/19 12:26:26;;;;;;;;;;;4.60;95.20;;;;;;4976480;28;19930;-74
2021/12/19 12:28:53;;;;;;;;;;;4.60;95.10;;;;;;4978093;28;19933;-74
2021/12/19 12:31:19;;;;;;;;;;;4.60;95.10;;;;;;4975353;28;20063;-74
2021/12/19 12:33:46;;;;;;;;;;;4.60;95.10;;;;;;4977908;28;19930;-74
2021/12/19 12:36:15;;;;;;;;;;;4.60;95.10;;;;;;4972228;28;19929;-74
2021/12/19 12:38:45;;;;;;;;;;;4.50;95.10;;;;;;4979858;28;20443;-74
2021/12/19 12:41:26;;;;;;;;;;;4.60;95.10;;;;;;4977840;28;19930;-74
2021/12/19 12:43:53;;;;;;;;;;;4.60;95.10;;;;;;4975211;28;19925;-74
2021/12/19 12:46:20;;;;;;;;;;;4.50;95.10;;;;;;4978282;28;19933;-74
2021/12/19 12:48:51;;;;;;;;;;;4.50;95.10;;;;;;4977970;28;19965;-74
2021/12/19 12:51:20;;;;;;;;;;;4.60;95.10;;;;;;4976521;28;20008;-75
2021/12/19 12:53:48;;;;;;;;;;;4.50;95.10;;;;;;4976673;28;20313;-75
2021/12/19 12:56:18;;;;;;;;;;;4.50;95.10;;;;;;4976663;28;19962;-75
2021/12/19 12:58:46;;;;;;;;;;;4.50;95.10;;;;;;4973504;28;19948;-74
2021/12/19 13:01:14;;;;;;;;;;;4.50;95.10;;;;;;4976958;28;19930;-75
2021/12/19 13:03:53;;;;;;;;;;;4.50;95.10;;;;;;4975501;28;20846;-75
2021/12/19 13:09:15;;;;;;;;;;;4.50;95.10;;;;;;5074016;27;19928;-74
2021/12/19 13:11:43;;;;;;;;;;;4.50;95.10;;;;;;5074240;28;19929;-74
2021/12/19 13:14:10;;;;;;;;;;;4.50;95.10;;;;;;5072864;28;19928;-74
2021/12/19 13:16:41;;;;;;;;;;;4.50;95.10;;;;;;5077847;28;19928;-74
2021/12/19 13:19:07;;;;;;;;;;;4.50;95.10;;;;;;5071711;28;19928;-74
2021/12/19 13:21:49;;;;;;;;;;;4.50;95.10;;;;;;5075081;28;20332;-74
2021/12/19 13:24:21;;;;;;;;;;;4.60;95.10;;;;;;5077014;28;19928;-74
2021/12/19 13:26:47;;;;;;;;;;;4.50;95.10;;;;;;5074066;28;19928;-74
2021/12/19 13:29:17;;;;;;;;;;;4.50;95.10;;;;;;5072762;28;19938;-74
2021/12/19 13:31:44;;;;;;;;;;;4.50;95.10;;;;;;5075579;28;19924;-74
2021/12/19 13:34:12;;;;;;;;;;;4.60;95.10;;;;;;5075381;28;19929;-74
2021/12/19 13:36:38;;;;;;;;;;;4.50;95.10;;;;;;5070856;28;19932;-74
2021/12/19 13:39:05;;;;;;;;;;;4.50;95.10;;;;;;5077236;28;19936;-74
2021/12/19 13:41:33;;;;;;;;;;;4.50;95.10;;;;;;5065240;28;19928;-74
2021/12/19 13:43:59;;;;;;;;;;;4.50;95.10;;;;;;5075562;28;19971;-74
2021/12/19 13:46:28;;;;;;;;;;;4.50;95.10;;;;;;5073449;28;19932;-74
2021/12/19 13:48:55;;;;;;;;;;;4.50;95.10;;;;;;5073578;28;19982;-74
2021/12/19 13:51:23;;;;;;;;;;;4.50;95.10;;;;;;5069483;28;19974;-74
2021/12/19 13:53:52;;;;;;;;;;;4.50;95.10;;;;;;5075324;28;19982;-74
2021/12/19 13:56:19;;;;;;;;;;;4.50;95.10;;;;;;5070027;28;20029;-74
2021/12/19 13:58:49;;;;;;;;;;;4.50;95.10;;;;;;5076442;28;20579;-73
2021/12/19 14:01:16;;;;;;;;;;;4.50;95.10;;;;;;5074766;28;19940;-73
2021/12/19 14:03:44;;;;;;;;;;;4.50;95.10;;;;;;5070481;28;19932;-74
2021/12/19 14:06:12;;;;;;;;;;;4.50;95.10;;;;;;5070899;28;19924;-74
2021/12/19 14:08:39;;;;;;;;;;;4.50;95.10;;;;;;5073415;28;20505;-73
2021/12/19 14:11:13;;;;;;;;;;;4.50;95.10;;;;;;5070359;28;19933;-74
2021/12/19 14:13:41;;;;;;;;;;;4.50;95.10;;;;;;5073444;28;19974;-74
2021/12/19 14:16:10;;;;;;;;;;;4.50;95.10;;;;;;5070987;28;19929;-74
2021/12/19 14:18:40;;;;;;;;;;;4.50;95.10;;;;;;5065315;28;20026;-74
2021/12/19 14:21:21;;;;;;;;;;;4.50;95.10;;;;;;5061381;28;19932;-74
2021/12/19 14:23:48;;;;;;;;;;;4.50;95.10;;;;;;5055350;28;19932;-74
2021/12/19 14:26:24;;;;;;;;;;;4.50;95.10;;;;;;5058073;28;21684;-74
2021/12/19 14:28:51;;;;;;;;;;;4.50;95.10;;;;;;5056206;28;19943;-73
2021/12/19 14:31:19;;;;;;;;;;;4.50;95.10;;;;;;5060437;28;19940;-73
2021/12/19 14:33:45;;;;;;;;;;;4.50;95.10;;;;;;5053690;28;19932;-73
2021/12/19 14:36:12;;;;;;;;;;;4.50;95.10;;;;;;5056063;28;20693;-71
2021/12/19 14:38:39;;;;;;;;;;;4.50;95.00;;;;;;5055665;28;19936;-72
2021/12/19 14:41:06;;;;;;;;;;;4.50;95.00;;;;;;5055033;28;20327;-72
2021/12/19 14:43:34;;;;;;;;;;;4.50;95.00;;;;;;5056067;28;20747;-72
2021/12/19 14:46:02;;;;;;;;;;;4.50;95.00;;;;;;5057338;28;19928;-71
2021/12/19 14:48:31;;;;;;;;;;;4.50;95.00;;;;;;5061462;28;19935;-72
2021/12/19 14:50:59;;;;;;;;;;;4.50;95.00;;;;;;5053862;28;20027;-72
2021/12/19 14:53:27;;;;;;;;;;;4.50;95.00;;;;;;5059745;28;19932;-73
2021/12/19 14:55:54;;;;;;;;;;;4.50;95.00;;;;;;5054965;28;20740;-72
2021/12/19 14:58:22;;;;;;;;;;;4.50;95.00;;;;;;5055351;28;19935;-72
2021/12/19 15:00:50;;;;;;;;;;;4.50;95.00;;;;;;5045376;28;19940;-74
2021/12/19 15:03:17;;;;;;;;;;;4.50;95.00;;;;;;5054596;28;19933;-74
2021/12/19 15:05:45;;;;;;;;;;;4.50;95.00;;;;;;5050068;28;19929;-72
2021/12/19 15:08:14;;;;;;;;;;;4.40;95.00;;;;;;5057910;28;20019;-73
2021/12/19 15:10:40;;;;;;;;;;;4.50;95.00;;;;;;5051317;28;19932;-72
2021/12/19 15:13:07;;;;;;;;;;;4.50;95.00;;;;;;5050218;28;19936;-74
2021/12/19 15:15:33;;;;;;;;;;;4.50;95.00;;;;;;5057346;28;19935;-74
2021/12/19 15:18:00;;;;;;;;;;;4.50;95.00;;;;;;5055842;28;19929;-72
2021/12/19 15:20:27;;;;;;;;;;;4.50;95.00;;;;;;5053997;28;19936;-74
2021/12/19 15:22:57;;;;;;;;;;;4.40;95.00;;;;;;5054586;28;19928;-74
2021/12/19 15:25:23;;;;;;;;;;;4.40;94.90;;;;;;5056058;28;20045;-73
2021/12/19 15:27:50;;;;;;;;;;;4.40;94.90;;;;;;5053912;28;19928;-73
2021/12/19 15:30:17;;;;;;;;;;;4.40;94.90;;;;;;5055437;28;19929;-72
2021/12/19 15:32:43;;;;;;;;;;;4.50;94.90;;;;;;5047461;28;20007;-73
2021/12/19 15:35:10;;;;;;;;;;;4.40;94.90;;;;;;5062595;28;19933;-73